Time;durP1;ratioP1;P1;durP2;ratioP2;P2;SDS_P1;SDS_P2;PMS_P1;PMS_P2;Temp;Humidity;BMP_temperature;BMP_pressure;BME280_temperature;BME280_humidity;BME280_pressure;Samples;Min_cycle;Max_cycle;Signal;HPM_P1;HPM_P2
2020/12/06 00:01:48;;;;;;;49.95;6.82;;;;;;;;;;5054537;28;20430;-60
2020/12/06 00:04:19;;;;;;;49.70;6.35;;;;;;;;;;5054657;28;20090;-55
2020/12/06 00:06:47;;;;;;;52.17;6.43;;;;;;;;;;5058438;28;20431;-55
2020/12/06 00:09:14;;;;;;;43.38;6.30;;;;;;;;;;5053708;28;20594;-56
2020/12/06 00:11:41;;;;;;;38.58;7.07;;;;;;;;;;5055862;28;20040;-65
2020/12/06 00:14:08;;;;;;;49.88;6.78;;;;;;;;;;5064295;28;20506;-51
2020/12/06 00:16:35;;;;;;;39.08;5.97;;;;;;;;;;5055924;28;20174;-53
2020/12/06 00:19:02;;;;;;;57.53;6.07;;;;;;;;;;5053886;28;20028;-53
2020/12/06 00:21:29;;;;;;;49.92;5.75;;;;;;;;;;5053289;28;20040;-66
2020/12/06 00:23:56;;;;;;;51.92;6.28;;;;;;;;;;5054889;28;20062;-58
2020/12/06 00:26:24;;;;;;;44.80;6.45;;;;;;;;;;5070156;28;20525;-55
2020/12/06 00:28:51;;;;;;;55.88;6.50;;;;;;;;;;5073436;28;20040;-63
2020/12/06 00:31:18;;;;;;;43.90;6.25;;;;;;;;;;5072592;28;20494;-55
2020/12/06 00:33:45;;;;;;;37.20;5.57;;;;;;;;;;5073178;28;20025;-66
2020/12/06 00:36:13;;;;;;;40.88;6.10;;;;;;;;;;5070706;28;20044;-60
2020/12/06 00:38:41;;;;;;;48.60;6.25;;;;;;;;;;5060139;28;20044;-63
2020/12/06 00:41:11;;;;;;;54.25;6.95;;;;;;;;;;5052486;28;20082;-61
2020/12/06 00:43:39;;;;;;;45.22;6.15;;;;;;;;;;5052275;28;20361;-59
2020/12/06 00:46:06;;;;;;;48.72;7.10;;;;;;;;;;5057784;28;20028;-61
2020/12/06 00:48:33;;;;;;;45.95;6.45;;;;;;;;;;5061482;28;20029;-58
2020/12/06 00:51:00;;;;;;;41.90;5.80;;;;;;;;;;5054306;28;20017;-57
2020/12/06 00:53:27;;;;;;;49.13;6.82;;;;;;;;;;5052435;28;20083;-56
2020/12/06 00:55:54;;;;;;;52.92;6.72;;;;;;;;;;5054302;28;20045;-59
2020/12/06 00:58:21;;;;;;;64.95;6.80;;;;;;;;;;5050971;28;20492;-60
2020/12/06 01:00:48;;;;;;;49.33;7.35;;;;;;;;;;5051036;28;20028;-60
2020/12/06 01:03:15;;;;;;;78.43;8.25;;;;;;;;;;5035888;28;20040;-62
2020/12/06 01:05:42;;;;;;;75.90;8.23;;;;;;;;;;5037885;28;20025;-61
2020/12/06 01:08:12;;;;;;;52.85;7.38;;;;;;;;;;5038971;28;20535;-62
2020/12/06 01:10:39;;;;;;;47.50;6.20;;;;;;;;;;5035379;28;20381;-53
2020/12/06 01:13:06;;;;;;;53.55;5.65;;;;;;;;;;5026521;28;20549;-62
2020/12/06 01:15:33;;;;;;;55.90;7.18;;;;;;;;;;5048163;28;20025;-56
2020/12/06 01:18:00;;;;;;;42.28;6.30;;;;;;;;;;5042037;28;20473;-59
2020/12/06 01:20:27;;;;;;;59.28;7.70;;;;;;;;;;5040231;28;20033;-56
2020/12/06 01:22:54;;;;;;;49.78;7.88;;;;;;;;;;5044956;28;20497;-60
2020/12/06 01:25:21;;;;;;;61.25;7.32;;;;;;;;;;5051423;28;20108;-59
2020/12/06 01:27:48;;;;;;;52.75;6.63;;;;;;;;;;5049409;28;20138;-60
2020/12/06 01:30:15;;;;;;;41.80;6.22;;;;;;;;;;5039725;28;20049;-58
2020/12/06 01:32:42;;;;;;;43.15;5.90;;;;;;;;;;5045563;28;20037;-59
2020/12/06 01:35:10;;;;;;;78.57;9.88;;;;;;;;;;5036487;28;20128;-56
2020/12/06 01:37:37;;;;;;;62.85;8.02;;;;;;;;;;5043918;28;20029;-59
2020/12/06 01:40:04;;;;;;;45.25;6.95;;;;;;;;;;5036113;28;20037;-54
2020/12/06 01:42:31;;;;;;;49.45;6.78;;;;;;;;;;5035259;28;20025;-62
2020/12/06 01:44:59;;;;;;;43.13;5.82;;;;;;;;;;5038534;28;20088;-59
2020/12/06 01:47:29;;;;;;;35.83;5.57;;;;;;;;;;5040060;28;20151;-66
2020/12/06 01:49:56;;;;;;;30.60;4.97;;;;;;;;;;5040680;28;20095;-64
2020/12/06 01:52:24;;;;;;;30.23;4.65;;;;;;;;;;5035730;28;20389;-62
2020/12/06 01:54:51;;;;;;;25.77;4.22;;;;;;;;;;5038259;28;20036;-54
2020/12/06 01:57:18;;;;;;;33.75;3.78;;;;;;;;;;5032907;28;20030;-47
2020/12/06 01:59:45;;;;;;;28.95;3.72;;;;;;;;;;5042573;28;20599;-57
2020/12/06 02:02:14;;;;;;;26.40;3.63;;;;;;;;;;5046911;28;20029;-58
2020/12/06 02:04:42;;;;;;;29.45;3.58;;;;;;;;;;5034445;28;20037;-68
2020/12/06 02:07:10;;;;;;;40.45;4.35;;;;;;;;;;5045598;28;20022;-63
2020/12/06 02:09:37;;;;;;;23.38;3.42;;;;;;;;;;5039798;28;20017;-61
2020/12/06 02:12:11;;;;;;;26.63;3.63;;;;;;;;;;5047667;28;20135;-59
2020/12/06 02:14:38;;;;;;;24.83;3.13;;;;;;;;;;5035992;28;20116;-63
2020/12/06 02:17:05;;;;;;;23.42;3.15;;;;;;;;;;5035816;28;20197;-57
2020/12/06 02:19:32;;;;;;;26.98;3.92;;;;;;;;;;5038901;28;20064;-63
2020/12/06 02:21:59;;;;;;;30.40;4.13;;;;;;;;;;5041290;28;20017;-57
2020/12/06 02:24:26;;;;;;;20.73;2.67;;;;;;;;;;5044310;28;20428;-66
2020/12/06 02:26:53;;;;;;;17.02;2.67;;;;;;;;;;5033143;28;20018;-60
2020/12/06 02:29:20;;;;;;;18.08;2.85;;;;;;;;;;5043743;28;20140;-65
2020/12/06 02:31:48;;;;;;;17.95;3.03;;;;;;;;;;5040696;28;20037;-57
2020/12/06 02:34:15;;;;;;;24.73;3.63;;;;;;;;;;5038391;28;20457;-55
2020/12/06 02:36:42;;;;;;;25.13;3.30;;;;;;;;;;5039676;28;20037;-57
2020/12/06 02:39:10;;;;;;;22.00;2.63;;;;;;;;;;5035757;28;20030;-51
2020/12/06 02:41:41;;;;;;;24.98;3.50;;;;;;;;;;5034968;28;20101;-53
2020/12/06 02:44:09;;;;;;;18.98;3.30;;;;;;;;;;5035810;28;20018;-54
2020/12/06 02:46:37;;;;;;;30.98;3.22;;;;;;;;;;5034255;28;20068;-53
2020/12/06 02:49:05;;;;;;;24.00;3.00;;;;;;;;;;5038403;28;20116;-58
2020/12/06 02:51:32;;;;;;;22.35;3.15;;;;;;;;;;5034934;28;20060;-57
2020/12/06 02:53:59;;;;;;;26.73;3.65;;;;;;;;;;5038309;28;20488;-58
2020/12/06 02:56:26;;;;;;;25.45;3.00;;;;;;;;;;5040976;28;20052;-57
2020/12/06 02:58:53;;;;;;;33.35;3.72;;;;;;;;;;5035926;28;20644;-54
2020/12/06 03:01:20;;;;;;;19.42;2.88;;;;;;;;;;5031528;28;20045;-61
2020/12/06 03:03:47;;;;;;;35.22;3.20;;;;;;;;;;5036953;28;20444;-58
2020/12/06 03:06:14;;;;;;;30.25;3.45;;;;;;;;;;5032810;28;20044;-59
2020/12/06 03:08:41;;;;;;;14.43;2.47;;;;;;;;;;5031288;28;20048;-58
2020/12/06 03:11:11;;;;;;;28.00;3.03;;;;;;;;;;5031798;28;20033;-52
2020/12/06 03:13:38;;;;;;;28.40;2.88;;;;;;;;;;5047558;28;20036;-63
2020/12/06 03:16:05;;;;;;;17.42;2.45;;;;;;;;;;5051134;28;20458;-59
2020/12/06 03:18:32;;;;;;;14.85;2.38;;;;;;;;;;5053887;28;20068;-58
2020/12/06 03:20:59;;;;;;;15.30;2.42;;;;;;;;;;5069994;28;20493;-60
2020/12/06 03:23:26;;;;;;;19.85;2.53;;;;;;;;;;5049741;28;20037;-55
2020/12/06 03:25:53;;;;;;;20.83;2.75;;;;;;;;;;5049962;28;20021;-60
2020/12/06 03:28:20;;;;;;;16.20;2.35;;;;;;;;;;5049019;28;20030;-60
2020/12/06 03:30:47;;;;;;;17.63;2.70;;;;;;;;;;5049393;28;20601;-59
2020/12/06 03:33:14;;;;;;;17.45;2.20;;;;;;;;;;5049286;28;20029;-59
2020/12/06 03:35:41;;;;;;;16.20;2.75;;;;;;;;;;5049260;28;20475;-59
2020/12/06 03:38:08;;;;;;;16.52;2.13;;;;;;;;;;5049521;28;20403;-61
2020/12/06 03:40:35;;;;;;;11.70;1.90;;;;;;;;;;5050416;28;20025;-59
2020/12/06 03:43:03;;;;;;;13.73;1.88;;;;;;;;;;5051243;28;20040;-58
2020/12/06 03:45:30;;;;;;;18.52;2.83;;;;;;;;;;5050743;28;20025;-59
2020/12/06 03:47:57;;;;;;;9.57;1.92;;;;;;;;;;5051112;28;20476;-59
2020/12/06 03:50:24;;;;;;;17.80;2.97;;;;;;;;;;5051115;28;20024;-60
2020/12/06 03:52:51;;;;;;;16.73;2.33;;;;;;;;;;5050755;28;20036;-60
2020/12/06 03:55:19;;;;;;;19.02;2.00;;;;;;;;;;5051069;28;20092;-60
2020/12/06 03:57:46;;;;;;;20.83;3.30;;;;;;;;;;5050507;28;20033;-59
2020/12/06 04:00:13;;;;;;;11.75;2.10;;;;;;;;;;5050942;28;20103;-60
2020/12/06 04:02:40;;;;;;;20.63;1.92;;;;;;;;;;5049979;28;20055;-60
2020/12/06 04:05:07;;;;;;;17.45;3.22;;;;;;;;;;5051186;28;20377;-60
2020/12/06 04:07:34;;;;;;;19.42;2.00;;;;;;;;;;5050557;28;20080;-59
2020/12/06 04:10:01;;;;;;;14.43;1.95;;;;;;;;;;5050633;28;20432;-60
2020/12/06 04:12:28;;;;;;;21.40;2.38;;;;;;;;;;5050442;28;20099;-59
2020/12/06 04:14:55;;;;;;;15.32;2.13;;;;;;;;;;5050967;28;20039;-61
2020/12/06 04:17:22;;;;;;;16.02;1.67;;;;;;;;;;5048141;28;20432;-60
2020/12/06 04:19:49;;;;;;;20.45;2.50;;;;;;;;;;5050563;28;20045;-59
2020/12/06 04:22:16;;;;;;;14.98;1.90;;;;;;;;;;5050600;28;20017;-58
2020/12/06 04:24:43;;;;;;;16.20;2.45;;;;;;;;;;5050039;28;20108;-60
2020/12/06 04:27:10;;;;;;;13.85;2.08;;;;;;;;;;5050929;28;20504;-60
2020/12/06 04:29:37;;;;;;;19.13;2.50;;;;;;;;;;5049713;28;20132;-59
2020/12/06 04:32:04;;;;;;;19.10;2.80;;;;;;;;;;5050293;28;20028;-60
2020/12/06 04:34:31;;;;;;;20.40;2.60;;;;;;;;;;5050346;28;20029;-60
2020/12/06 04:36:58;;;;;;;25.52;2.65;;;;;;;;;;5050684;28;20051;-61
2020/12/06 04:39:25;;;;;;;20.40;2.33;;;;;;;;;;5050106;28;20108;-59
2020/12/06 04:41:52;;;;;;;22.25;2.08;;;;;;;;;;5050419;28;20032;-60
2020/12/06 04:44:19;;;;;;;16.50;2.05;;;;;;;;;;5050275;28;20058;-61
2020/12/06 04:46:46;;;;;;;13.10;2.22;;;;;;;;;;5053150;28;20591;-61
2020/12/06 04:49:25;;;;;;;12.77;2.50;;;;;;;;;;5053800;28;20037;-61
2020/12/06 04:51:55;;;;;;;15.77;2.15;;;;;;;;;;5052855;28;20070;-59
2020/12/06 04:54:24;;;;;;;13.07;2.08;;;;;;;;;;5053586;28;20033;-58
2020/12/06 04:56:56;;;;;;;11.85;2.20;;;;;;;;;;5052775;28;20099;-61
2020/12/06 04:59:23;;;;;;;13.93;1.67;;;;;;;;;;5053642;28;20044;-57
2020/12/06 05:01:51;;;;;;;8.82;2.00;;;;;;;;;;5053500;28;20092;-59
2020/12/06 05:04:20;;;;;;;13.20;2.05;;;;;;;;;;5053986;28;20021;-61
2020/12/06 05:06:47;;;;;;;19.23;2.05;;;;;;;;;;5053636;28;20017;-58
2020/12/06 05:09:14;;;;;;;11.80;1.95;;;;;;;;;;5051612;28;20029;-61
2020/12/06 05:11:42;;;;;;;14.88;2.13;;;;;;;;;;5052935;28;20079;-60
2020/12/06 05:14:09;;;;;;;10.13;1.63;;;;;;;;;;5052545;28;20029;-61
2020/12/06 05:16:40;;;;;;;16.38;1.70;;;;;;;;;;5053410;28;20031;-60
2020/12/06 05:19:11;;;;;;;12.80;1.85;;;;;;;;;;5053536;28;20039;-61
2020/12/06 05:21:39;;;;;;;10.52;1.63;;;;;;;;;;5052618;28;20024;-60
2020/12/06 05:24:06;;;;;;;21.40;2.03;;;;;;;;;;5053525;28;20025;-60
2020/12/06 05:26:33;;;;;;;11.18;1.70;;;;;;;;;;5052823;28;20669;-60
2020/12/06 05:29:01;;;;;;;14.30;1.70;;;;;;;;;;5053039;28;20083;-59
2020/12/06 05:31:28;;;;;;;12.55;1.40;;;;;;;;;;5053001;28;20381;-61
2020/12/06 05:33:55;;;;;;;11.32;1.25;;;;;;;;;;5032769;28;20033;-60
2020/12/06 05:36:22;;;;;;;11.27;1.38;;;;;;;;;;5033084;28;20028;-61
2020/12/06 05:38:49;;;;;;;11.82;1.80;;;;;;;;;;5032633;28;20059;-61
2020/12/06 05:41:16;;;;;;;5.43;1.30;;;;;;;;;;5032810;28;20021;-61
2020/12/06 05:43:43;;;;;;;12.50;1.55;;;;;;;;;;5032297;28;20021;-61
2020/12/06 05:46:10;;;;;;;9.60;1.42;;;;;;;;;;5033295;28;20064;-60
2020/12/06 05:48:38;;;;;;;6.82;1.23;;;;;;;;;;5032451;28;20026;-60
2020/12/06 05:51:06;;;;;;;9.57;1.38;;;;;;;;;;5032707;28;20020;-61
2020/12/06 05:53:33;;;;;;;9.18;1.10;;;;;;;;;;5032715;28;20355;-60
2020/12/06 05:56:18;;;;;;;10.60;1.23;;;;;;;;;;5033096;28;20022;-59
2020/12/06 05:58:46;;;;;;;7.03;1.50;;;;;;;;;;5032482;28;20108;-58
2020/12/06 06:01:14;;;;;;;8.60;1.00;;;;;;;;;;5034839;28;20025;-58
2020/12/06 06:03:44;;;;;;;7.72;1.13;;;;;;;;;;5051671;28;20029;-61
2020/12/06 06:06:16;;;;;;;10.02;1.55;;;;;;;;;;5052844;28;20433;-59
2020/12/06 06:08:46;;;;;;;7.78;1.08;;;;;;;;;;5051118;28;20021;-53
2020/12/06 06:11:21;;;;;;;11.68;1.25;;;;;;;;;;5052141;28;20028;-58
2020/12/06 06:14:01;;;;;;;3.65;1.10;;;;;;;;;;5052250;28;20021;-60
2020/12/06 06:16:28;;;;;;;5.03;1.38;;;;;;;;;;5053483;28;20100;-59
2020/12/06 06:18:57;;;;;;;7.07;1.38;;;;;;;;;;5051603;28;20155;-59
2020/12/06 06:21:28;;;;;;;6.45;1.17;;;;;;;;;;5046469;28;20029;-59
2020/12/06 06:23:56;;;;;;;7.13;1.13;;;;;;;;;;5052406;28;20112;-57
2020/12/06 06:26:25;;;;;;;7.32;1.20;;;;;;;;;;5052290;28;20029;-60
2020/12/06 06:28:52;;;;;;;11.48;1.80;;;;;;;;;;5051730;28;20052;-58
2020/12/06 06:31:20;;;;;;;7.13;0.98;;;;;;;;;;5049549;28;20021;-59
2020/12/06 06:33:51;;;;;;;12.32;1.27;;;;;;;;;;5051358;28;20021;-60
2020/12/06 06:36:21;;;;;;;11.27;1.17;;;;;;;;;;5051515;28;20032;-59
2020/12/06 06:38:49;;;;;;;9.48;1.55;;;;;;;;;;5052247;28;20496;-59
2020/12/06 06:41:16;;;;;;;10.18;1.38;;;;;;;;;;5050966;28;20025;-57
2020/12/06 06:43:44;;;;;;;11.30;1.52;;;;;;;;;;5051030;28;20040;-59
2020/12/06 06:46:14;;;;;;;7.78;1.40;;;;;;;;;;5052017;28;20021;-59
2020/12/06 06:48:45;;;;;;;11.05;1.38;;;;;;;;;;5051738;28;20104;-56
2020/12/06 06:51:18;;;;;;;7.28;1.33;;;;;;;;;;5052062;28;20017;-59
2020/12/06 06:53:45;;;;;;;8.20;1.30;;;;;;;;;;5051345;28;20025;-60
2020/12/06 06:56:13;;;;;;;11.82;1.30;;;;;;;;;;5052028;28;20037;-58
2020/12/06 06:58:40;;;;;;;13.45;1.17;;;;;;;;;;5051510;28;20033;-60
2020/12/06 07:01:17;;;;;;;5.03;1.10;;;;;;;;;;5052058;28;20021;-60
2020/12/06 07:03:48;;;;;;;7.68;1.15;;;;;;;;;;5050868;28;20013;-60
2020/12/06 07:06:34;;;;;;;7.88;1.10;;;;;;;;;;5050790;28;20037;-58
2020/12/06 07:09:02;;;;;;;11.77;1.15;;;;;;;;;;5050873;28;20029;-59
2020/12/06 07:11:29;;;;;;;9.20;1.48;;;;;;;;;;5051594;28;20053;-59
2020/12/06 07:13:56;;;;;;;6.13;1.38;;;;;;;;;;5051211;28;20025;-56
2020/12/06 07:16:23;;;;;;;7.95;1.27;;;;;;;;;;5051721;28;20549;-60
2020/12/06 07:18:50;;;;;;;7.22;1.30;;;;;;;;;;5051505;28;20529;-60
2020/12/06 07:21:17;;;;;;;11.13;1.17;;;;;;;;;;5050553;28;20017;-59
2020/12/06 07:23:44;;;;;;;9.50;1.40;;;;;;;;;;5050646;28;20029;-60
2020/12/06 07:26:11;;;;;;;8.52;1.30;;;;;;;;;;5051236;28;20092;-60
2020/12/06 07:28:38;;;;;;;7.25;1.27;;;;;;;;;;5051422;28;20077;-60
2020/12/06 07:31:05;;;;;;;8.10;1.25;;;;;;;;;;5050939;28;20237;-60
2020/12/06 07:33:32;;;;;;;10.98;1.20;;;;;;;;;;5050092;28;20025;-59
2020/12/06 07:35:59;;;;;;;7.00;1.13;;;;;;;;;;5050979;28;20025;-59
2020/12/06 07:38:26;;;;;;;10.07;1.23;;;;;;;;;;5051327;28;20045;-62
2020/12/06 07:41:03;;;;;;;9.07;1.02;;;;;;;;;;5050661;28;20440;-58
2020/12/06 07:43:31;;;;;;;11.35;1.40;;;;;;;;;;5051263;28;20370;-59
2020/12/06 07:45:58;;;;;;;9.85;1.10;;;;;;;;;;5050976;28;20021;-60
2020/12/06 07:48:25;;;;;;;9.80;1.58;;;;;;;;;;5051345;28;20021;-59
2020/12/06 07:50:52;;;;;;;12.60;1.67;;;;;;;;;;5050889;28;20036;-59
2020/12/06 07:53:19;;;;;;;7.50;1.35;;;;;;;;;;5050648;28;20021;-58
2020/12/06 07:55:46;;;;;;;10.15;1.17;;;;;;;;;;5051190;28;20056;-60
2020/12/06 07:58:15;;;;;;;11.40;1.33;;;;;;;;;;5050922;28;20079;-58
2020/12/06 08:00:42;;;;;;;6.45;1.35;;;;;;;;;;5051450;28;20510;-59
2020/12/06 08:03:10;;;;;;;8.73;1.40;;;;;;;;;;5050669;28;20074;-58
2020/12/06 08:05:38;;;;;;;9.63;1.10;;;;;;;;;;5049857;28;20384;-60
2020/12/06 08:08:11;;;;;;;8.45;1.20;;;;;;;;;;5050837;28;20036;-60
2020/12/06 08:10:37;;;;;;;;;;;;;;;;;;5051375;28;20032;-59
2020/12/06 08:13:04;;;;;;;9.20;1.35;;;;;;;;;;5050348;28;20400;-59
2020/12/06 08:15:31;;;;;;;7.20;1.23;;;;;;;;;;5050966;28;20025;-59
2020/12/06 08:17:58;;;;;;;9.68;1.20;;;;;;;;;;5050239;28;20108;-59
2020/12/06 08:20:26;;;;;;;9.23;1.05;;;;;;;;;;5051208;28;20036;-58
2020/12/06 08:22:57;;;;;;;8.20;1.00;;;;;;;;;;5054350;28;20083;-59
2020/12/06 08:25:25;;;;;;;6.95;1.70;;;;;;;;;;5054120;28;20064;-59
2020/12/06 08:27:54;;;;;;;8.57;1.23;;;;;;;;;;5054606;28;20032;-58
2020/12/06 08:30:22;;;;;;;6.90;1.15;;;;;;;;;;5054504;28;20420;-58
2020/12/06 08:32:51;;;;;;;7.53;1.25;;;;;;;;;;5054453;28;20021;-59
2020/12/06 08:35:18;;;;;;;8.88;1.48;;;;;;;;;;5053295;28;20025;-59
2020/12/06 08:37:46;;;;;;;14.20;1.30;;;;;;;;;;5054640;28;20039;-60
2020/12/06 08:40:13;;;;;;;6.18;1.20;;;;;;;;;;5054231;28;20108;-57
2020/12/06 08:42:40;;;;;;;8.55;1.00;;;;;;;;;;5053188;28;20047;-61
2020/12/06 08:45:07;;;;;;;5.90;1.10;;;;;;;;;;5053791;28;20388;-60
2020/12/06 08:47:44;;;;;;;9.82;1.30;;;;;;;;;;5054561;28;20025;-60
2020/12/06 08:50:12;;;;;;;9.90;1.60;;;;;;;;;;5054103;28;20032;-59
2020/12/06 08:52:40;;;;;;;9.30;1.50;;;;;;;;;;5054066;28;20040;-59
2020/12/06 08:55:25;;;;;;;8.57;0.95;;;;;;;;;;5053637;28;20017;-59
2020/12/06 08:57:53;;;;;;;8.23;1.30;;;;;;;;;;5053687;28;20063;-58
2020/12/06 09:00:20;;;;;;;9.00;1.30;;;;;;;;;;5054028;28;20400;-59
2020/12/06 09:02:47;;;;;;;6.38;1.40;;;;;;;;;;5052607;28;20044;-59
2020/12/06 09:05:14;;;;;;;6.50;1.30;;;;;;;;;;5053237;28;20094;-59
2020/12/06 09:07:41;;;;;;;5.35;1.20;;;;;;;;;;5054122;28;20112;-59
2020/12/06 09:10:09;;;;;;;4.57;1.27;;;;;;;;;;5054086;28;20052;-59
2020/12/06 09:12:37;;;;;;;12.93;1.48;;;;;;;;;;5053009;28;20469;-58
2020/12/06 09:15:08;;;;;;;9.52;1.92;;;;;;;;;;5052543;28;20025;-59
2020/12/06 09:17:35;;;;;;;7.93;1.20;;;;;;;;;;5053407;28;20021;-60
2020/12/06 09:20:02;;;;;;;8.00;1.38;;;;;;;;;;5052720;28;20060;-59
2020/12/06 09:22:29;;;;;;;7.60;1.35;;;;;;;;;;5053025;28;20021;-58
2020/12/06 09:24:56;;;;;;;8.55;1.25;;;;;;;;;;5052261;28;20036;-59
2020/12/06 09:27:23;;;;;;;8.43;1.95;;;;;;;;;;5052497;28;20057;-59
2020/12/06 09:29:50;;;;;;;6.75;1.30;;;;;;;;;;5053414;28;20416;-56
2020/12/06 09:32:17;;;;;;;8.48;1.42;;;;;;;;;;5052547;28;20028;-60
2020/12/06 09:34:44;;;;;;;9.75;1.40;;;;;;;;;;5052248;28;20029;-59
2020/12/06 09:37:11;;;;;;;6.68;1.27;;;;;;;;;;5053116;28;20029;-60
2020/12/06 09:39:38;;;;;;;12.15;1.75;;;;;;;;;;5052007;28;20436;-59
2020/12/06 09:42:05;;;;;;;11.10;1.77;;;;;;;;;;5053081;28;20791;-57
2020/12/06 09:44:32;;;;;;;8.52;1.75;;;;;;;;;;5052621;28;20059;-59
2020/12/06 09:46:59;;;;;;;6.68;1.17;;;;;;;;;;5053145;28;20017;-59
2020/12/06 09:49:26;;;;;;;6.32;1.30;;;;;;;;;;5052218;28;20040;-56
2020/12/06 09:51:53;;;;;;;8.98;1.52;;;;;;;;;;5053321;28;20021;-60
2020/12/06 09:54:20;;;;;;;6.30;1.30;;;;;;;;;;5052788;28;20366;-56
2020/12/06 09:56:47;;;;;;;10.73;1.20;;;;;;;;;;5052831;28;20021;-59
2020/12/06 09:59:14;;;;;;;8.55;1.40;;;;;;;;;;5052570;28;20170;-57
2020/12/06 10:01:41;;;;;;;11.75;1.50;;;;;;;;;;5052951;28;20028;-59
2020/12/06 10:04:08;;;;;;;11.00;1.50;;;;;;;;;;5051707;28;20032;-57
2020/12/06 10:06:35;;;;;;;11.38;1.60;;;;;;;;;;5052700;28;20036;-57
2020/12/06 10:09:02;;;;;;;9.35;1.70;;;;;;;;;;5052273;28;20028;-58
2020/12/06 10:11:29;;;;;;;11.05;1.60;;;;;;;;;;5052705;28;20049;-59
2020/12/06 10:13:56;;;;;;;8.57;1.42;;;;;;;;;;5052010;28;20637;-54
2020/12/06 10:16:23;;;;;;;7.63;1.67;;;;;;;;;;5052478;28;20363;-60
2020/12/06 10:18:50;;;;;;;11.68;1.80;;;;;;;;;;5051075;28;20032;-57
2020/12/06 10:21:17;;;;;;;12.60;1.98;;;;;;;;;;5052386;28;20025;-59
2020/12/06 10:23:44;;;;;;;7.25;1.38;;;;;;;;;;5050793;28;20021;-59
2020/12/06 10:26:12;;;;;;;6.88;1.52;;;;;;;;;;5051186;28;20052;-59
2020/12/06 10:28:39;;;;;;;11.38;2.10;;;;;;;;;;5052286;28;20057;-58
2020/12/06 10:31:06;;;;;;;8.35;1.50;;;;;;;;;;5052297;28;20111;-58
2020/12/06 10:33:33;;;;;;;12.48;2.05;;;;;;;;;;5051724;28;20021;-58
2020/12/06 10:36:00;;;;;;;9.52;1.58;;;;;;;;;;5051697;28;20025;-59
2020/12/06 10:38:27;;;;;;;10.02;1.95;;;;;;;;;;5052478;28;20389;-58
2020/12/06 10:40:54;;;;;;;14.50;1.83;;;;;;;;;;5051834;28;20029;-58
2020/12/06 10:43:21;;;;;;;10.25;1.80;;;;;;;;;;5050671;28;20022;-56
2020/12/06 10:45:48;;;;;;;13.73;1.60;;;;;;;;;;5051260;28;20033;-59
2020/12/06 10:48:15;;;;;;;14.73;2.00;;;;;;;;;;5051904;28;20386;-59
2020/12/06 10:50:42;;;;;;;10.15;1.75;;;;;;;;;;5051923;28;20131;-59
2020/12/06 10:53:09;;;;;;;9.68;2.05;;;;;;;;;;5051317;28;20028;-59
2020/12/06 10:55:37;;;;;;;14.32;2.00;;;;;;;;;;5052033;28;20037;-59
2020/12/06 10:58:04;;;;;;;11.07;1.83;;;;;;;;;;5051312;28;20021;-59
2020/12/06 11:00:31;;;;;;;15.20;1.92;;;;;;;;;;5052134;28;20503;-57
2020/12/06 11:02:58;;;;;;;14.18;2.17;;;;;;;;;;5051312;28;20074;-59
2020/12/06 11:05:25;;;;;;;12.02;1.85;;;;;;;;;;5049599;28;20036;-57
2020/12/06 11:07:52;;;;;;;15.00;1.75;;;;;;;;;;5050829;28;20528;-57
2020/12/06 11:10:19;;;;;;;8.65;1.95;;;;;;;;;;5049672;28;20481;-56
2020/12/06 11:12:46;;;;;;;7.82;1.98;;;;;;;;;;5050601;28;20052;-58
2020/12/06 11:15:13;;;;;;;13.93;2.25;;;;;;;;;;5050991;28;20021;-58
2020/12/06 11:17:40;;;;;;;14.02;2.30;;;;;;;;;;5051115;28;20534;-51
2020/12/06 11:20:07;;;;;;;10.80;1.48;;;;;;;;;;5049824;28;20041;-60
2020/12/06 11:22:34;;;;;;;12.55;1.70;;;;;;;;;;5051765;28;20088;-57
2020/12/06 11:25:01;;;;;;;11.32;1.75;;;;;;;;;;5050456;28;20433;-58
2020/12/06 11:27:28;;;;;;;17.73;2.38;;;;;;;;;;5050675;28;20059;-58
2020/12/06 11:29:55;;;;;;;19.05;2.38;;;;;;;;;;5049809;28;20098;-58
2020/12/06 11:32:26;;;;;;;12.23;1.92;;;;;;;;;;5051381;28;20419;-60
2020/12/06 11:34:53;;;;;;;7.93;1.70;;;;;;;;;;5047749;28;20035;-58
2020/12/06 11:37:20;;;;;;;11.43;2.17;;;;;;;;;;5051061;28;20039;-59
2020/12/06 11:39:47;;;;;;;13.15;2.15;;;;;;;;;;5050340;28;20083;-57
2020/12/06 11:42:14;;;;;;;12.82;1.95;;;;;;;;;;5051460;28;20032;-60
2020/12/06 11:44:41;;;;;;;14.00;1.42;;;;;;;;;;5050644;28;20024;-60
2020/12/06 11:47:08;;;;;;;10.10;1.80;;;;;;;;;;5049964;28;20052;-60
2020/12/06 11:49:39;;;;;;;18.77;2.50;;;;;;;;;;5051024;28;20072;-57
2020/12/06 11:52:08;;;;;;;12.02;1.65;;;;;;;;;;5050814;28;20025;-59
2020/12/06 11:54:35;;;;;;;13.05;2.25;;;;;;;;;;5051505;28;20037;-59
2020/12/06 11:57:02;;;;;;;14.30;2.67;;;;;;;;;;5054889;28;20028;-58
2020/12/06 11:59:29;;;;;;;18.02;1.95;;;;;;;;;;5054747;28;20029;-60
2020/12/06 12:01:56;;;;;;;15.95;2.45;;;;;;;;;;5054117;28;20060;-59
2020/12/06 12:04:23;;;;;;;21.77;1.92;;;;;;;;;;5054599;28;20025;-58
2020/12/06 12:06:51;;;;;;;14.13;2.20;;;;;;;;;;5054671;28;20021;-57
2020/12/06 12:09:18;;;;;;;16.70;2.70;;;;;;;;;;5055163;28;20032;-59
2020/12/06 12:11:44;;;;;;;17.25;2.53;;;;;;;;;;5054654;28;20029;-58
2020/12/06 12:14:12;;;;;;;14.50;2.40;;;;;;;;;;5054950;28;20025;-59
2020/12/06 12:16:42;;;;;;;24.13;3.25;;;;;;;;;;5054519;28;20029;-59
2020/12/06 12:19:09;;;;;;;16.23;2.75;;;;;;;;;;5054722;28;20108;-60
2020/12/06 12:21:36;;;;;;;21.38;2.50;;;;;;;;;;5054666;28;20036;-56
2020/12/06 12:24:03;;;;;;;9.45;1.80;;;;;;;;;;5054834;28;20476;-60
2020/12/06 12:26:30;;;;;;;13.60;1.95;;;;;;;;;;5054124;28;20034;-59
2020/12/06 12:28:57;;;;;;;14.57;2.10;;;;;;;;;;5045942;28;20076;-51
2020/12/06 12:31:25;;;;;;;21.40;2.55;;;;;;;;;;5038791;28;20029;-53
2020/12/06 12:33:52;;;;;;;16.13;2.42;;;;;;;;;;5040633;28;20029;-52
2020/12/06 12:36:19;;;;;;;22.55;2.75;;;;;;;;;;5032465;28;20044;-57
2020/12/06 12:38:46;;;;;;;16.67;2.30;;;;;;;;;;5033666;28;20488;-53
2020/12/06 12:41:15;;;;;;;13.23;2.53;;;;;;;;;;5034090;28;20072;-54
2020/12/06 12:43:42;;;;;;;21.80;2.58;;;;;;;;;;5032918;28;20025;-54
2020/12/06 12:46:09;;;;;;;20.20;3.10;;;;;;;;;;5033126;28;20018;-59
2020/12/06 12:48:37;;;;;;;13.02;2.08;;;;;;;;;;5033300;28;20105;-53
2020/12/06 12:51:04;;;;;;;15.43;2.50;;;;;;;;;;5033258;28;20022;-52
2020/12/06 12:53:31;;;;;;;18.98;2.83;;;;;;;;;;5033146;28;20027;-55
2020/12/06 12:55:58;;;;;;;21.27;2.88;;;;;;;;;;5044517;28;20082;-57
2020/12/06 12:58:25;;;;;;;22.98;2.97;;;;;;;;;;5046845;28;20025;-59
2020/12/06 13:00:52;;;;;;;14.73;2.80;;;;;;;;;;5033321;28;20026;-57
2020/12/06 13:03:19;;;;;;;15.68;2.63;;;;;;;;;;5033382;28;20025;-56
2020/12/06 13:05:46;;;;;;;30.20;3.60;;;;;;;;;;5033593;28;20029;-59
2020/12/06 13:08:13;;;;;;;17.73;2.95;;;;;;;;;;5032932;28;20020;-58
2020/12/06 13:10:43;;;;;;;29.67;3.10;;;;;;;;;;5033708;28;20351;-59
2020/12/06 13:13:10;;;;;;;23.98;3.45;;;;;;;;;;5036915;28;20018;-59
2020/12/06 13:15:37;;;;;;;32.28;4.07;;;;;;;;;;5037824;28;20156;-57
2020/12/06 13:18:04;;;;;;;37.10;3.70;;;;;;;;;;5034059;28;20025;-57
2020/12/06 13:20:31;;;;;;;32.47;3.40;;;;;;;;;;5031447;28;20103;-57
2020/12/06 13:22:58;;;;;;;34.17;4.15;;;;;;;;;;5032783;28;20033;-59
2020/12/06 13:25:25;;;;;;;29.73;3.83;;;;;;;;;;5032206;28;20494;-57
2020/12/06 13:27:52;;;;;;;19.75;3.80;;;;;;;;;;5043609;28;20033;-59
2020/12/06 13:30:19;;;;;;;31.00;3.72;;;;;;;;;;5031838;28;20401;-56
2020/12/06 13:32:46;;;;;;;22.15;3.83;;;;;;;;;;5049322;28;20025;-59
2020/12/06 13:35:13;;;;;;;32.10;3.63;;;;;;;;;;5041704;28;20036;-53
2020/12/06 13:37:40;;;;;;;24.48;3.50;;;;;;;;;;5036186;28;20025;-57
2020/12/06 13:40:07;;;;;;;26.25;2.55;;;;;;;;;;5032168;28;20061;-56
2020/12/06 13:42:34;;;;;;;23.65;2.90;;;;;;;;;;5032324;28;20037;-56
2020/12/06 13:45:01;;;;;;;22.95;3.08;;;;;;;;;;5032657;28;20017;-56
2020/12/06 13:47:28;;;;;;;38.17;4.50;;;;;;;;;;5035512;28;20025;-56
2020/12/06 13:49:55;;;;;;;49.15;5.40;;;;;;;;;;5032187;28;20025;-55
2020/12/06 13:52:22;;;;;;;45.17;5.32;;;;;;;;;;5032207;28;20026;-55
2020/12/06 13:54:49;;;;;;;37.80;5.25;;;;;;;;;;5032092;28;20104;-56
2020/12/06 13:57:16;;;;;;;43.78;4.72;;;;;;;;;;5031332;28;20029;-53
2020/12/06 13:59:43;;;;;;;35.17;4.47;;;;;;;;;;5031421;28;20029;-56
2020/12/06 14:02:10;;;;;;;40.53;3.75;;;;;;;;;;5045076;28;20025;-55
2020/12/06 14:04:37;;;;;;;53.97;4.50;;;;;;;;;;5035449;28;20029;-55
2020/12/06 14:07:04;;;;;;;46.35;4.78;;;;;;;;;;5038460;28;20013;-51
2020/12/06 14:09:31;;;;;;;36.65;3.65;;;;;;;;;;5035350;28;20481;-51
2020/12/06 14:11:59;;;;;;;46.53;4.45;;;;;;;;;;5031857;28;20444;-44
2020/12/06 14:14:26;;;;;;;38.47;4.88;;;;;;;;;;5031563;28;20477;-51
2020/12/06 14:16:53;;;;;;;77.32;5.95;;;;;;;;;;5031203;28;20025;-49
2020/12/06 14:19:20;;;;;;;35.15;3.50;;;;;;;;;;5029944;28;20727;-45
2020/12/06 14:21:47;;;;;;;38.70;4.47;;;;;;;;;;5031887;28;20075;-43
2020/12/06 14:24:16;;;;;;;40.40;4.10;;;;;;;;;;5031807;28;20104;-45
2020/12/06 14:26:47;;;;;;;35.90;4.05;;;;;;;;;;5031564;28;20093;-44
2020/12/06 14:29:14;;;;;;;22.25;3.10;;;;;;;;;;5030895;28;20072;-58
2020/12/06 14:31:44;;;;;;;46.03;5.65;;;;;;;;;;5033999;28;20029;-56
2020/12/06 14:34:12;;;;;;;67.22;6.68;;;;;;;;;;5037526;28;20443;-56
2020/12/06 14:36:40;;;;;;;60.55;6.13;;;;;;;;;;5039489;28;20025;-56